Stations météo

réclame
Mon MeteoGroup
Kahler Asten, Allemagne (10427): Température de l'air & dewpoint: 16.10.2017 15:00:00 - 22.10.2017 15:00:00 (CEST)Kahler Asten, Allemagne (10427): Température de l'air 5cm & Température de l'air -5cm: 16.10.2017 15:00:00 - 22.10.2017 15:00:00 (CEST)Kahler Asten, Allemagne (10427): Température de l'air -20cm & Température de l'air -100cm: 16.10.2017 15:00:00 - 22.10.2017 15:00:00 (CEST)Kahler Asten, Allemagne (10427): Vitesse du vent & gusts: 16.10.2017 15:00:00 - 22.10.2017 15:00:00 (CEST)Kahler Asten, Allemagne (10427): Direction du vent: 16.10.2017 15:00:00 - 22.10.2017 15:00:00 (CEST)Kahler Asten, Allemagne (10427): visibility: 16.10.2017 15:00:00 - 22.10.2017 15:00:00 (CEST)Kahler Asten, Allemagne (10427): Ensoleillement: 16.10.2017 15:00:00 - 22.10.2017 15:00:00 (CEST)Kahler Asten, Allemagne (10427): Quantités de précipitations: 16.10.2017 15:00:00 - 22.10.2017 15:00:00 (CEST)
Date & Time tt [°C] td [°C] tt 5cm [°C] tt -5cm [°C] tt -20cm [°C] tt -100cm [°C] ff [km/h] ff [knt] fx [km/h] fx [knt] dd vv [km] sd [min] rr [mm]
22.10.2017 15:00:00 4,8 4,4 5,1 6,6 7,8 10,7 23 12 51 28 SW 0,3 0 0,1
22.10.2017 14:00:00 4,6 4,3 5,0 6,5 7,8 10,7 30 16 51 27 WSW 0,5 0 0,0
22.10.2017 13:00:00 4,6 4,2 5,0 6,4 7,8 10,7 34 19 57 31 SW 5 0 0,0
22.10.2017 12:00:00 4,4 4,0 4,6 6,1 7,8 10,7 36 19 59 32 SW 9 0 0,1
22.10.2017 11:00:00 4,3 3,9 4,5 6,0 7,9 10,7 34 19 61 33 SW 0,3 0 0,4
22.10.2017 10:00:00 4,2 3,6 4,2 5,9 8,0 10,8 39 21 59 32 SW 7 0 0,5
22.10.2017 09:00:00 4,2 3,5 4,2 5,9 8,1 10,8 32 17 52 28 SW 11 0 0,1
22.10.2017 08:00:00 4,5 3,1 4,1 6,0 8,3 10,8 33 18 52 28 SSW 18 0 0,0
22.10.2017 07:00:00 4,6 3,3 4,3 6,2 8,4 10,8 32 18 55 30 SSW 35 0 0,0
22.10.2017 06:00:00 5,0 3,5 4,6 6,4 8,5 10,8 37 20 57 31 SW 42 0 0,0
22.10.2017 05:00:00 5,2 4,0 4,9 6,6 8,7 10,8 39 21 55 30 SW 36 0 0,0
22.10.2017 04:00:00 5,8 4,7 5,4 7,0 8,8 10,8 39 21 56 30 SW 29 0 0,0
22.10.2017 03:00:00 6,3 5,3 6,0 7,3 8,8 10,8 29 15 49 26 SW 33 0 0,0
22.10.2017 02:00:00 6,6 5,7 6,2 7,4 8,9 10,8 35 19 52 28 SW 25 0 0,0
22.10.2017 01:00:00 6,9 5,9 6,6 7,7 9,0 10,8 37 20 55 30 SW 24 0 0,0
22.10.2017 00:00:00 7,0 6,2 6,7 7,7 9,1 10,8 29 16 50 27 SW 16 0 0,0
21.10.2017 23:00:00 7,1 6,4 6,8 7,8 9,2 10,8 31 17 42 23 SW 20 0 0,0
21.10.2017 22:00:00 7,0 6,0 6,7 7,9 9,3 10,8 23 12 38 21 SW 36 0 0,0
21.10.2017 21:00:00 7,3 5,5 6,2 8,5 9,4 10,8 23 12 35 19 SW 70 0 0,0
21.10.2017 20:00:00 8,6 7,9 8,3 9,2 9,4 10,8 27 15 42 23 SW 18 0 0,1
21.10.2017 19:00:00 9,3 8,7 9,0 9,5 9,3 10,8 24 13 45 24 SW 18 0 0,0
21.10.2017 18:00:00 9,7 9,3 9,6 9,7 9,2 10,8 29 16 42 23 SSW 5 0 0,0
21.10.2017 17:00:00 10,1 9,7 10,1 9,8 9,0 10,8 29 16 43 23 SSW 0,7 0 0,0
21.10.2017 16:00:00 10,1 9,7 10,2 9,6 8,9 10,8 24 13 40 21 SW 1,6 0 0,0
21.10.2017 15:00:00 9,8 9,6 9,9 9,2 8,7 10,8 23 12 41 22 SW 0,1 0 0,0
21.10.2017 14:00:00 9,0 8,7 9,1 8,8 8,6 10,9 21 11 43 23 SSW 0,1 0 0,3
21.10.2017 13:00:00 8,4 8,0 8,5 8,4 8,4 10,9 22 12 41 22 SSW 0,1 0 1,3
21.10.2017 12:00:00 7,9 7,6 8,0 8,0 8,3 10,9 20 11 44 24 SSW 0,3 0 1,1
21.10.2017 11:00:00 7,7 7,2 7,9 7,5 8,3 10,9 28 15 45 25 SW 6 0 0,0
21.10.2017 10:00:00 7,1 6,2 7,5 7,0 8,2 10,9 28 15 50 27 SSW 17 44 0,0
21.10.2017 09:00:00 6,1 5,4 5,7 6,3 8,3 10,9 29 16 50 27 SSW 14 0 0,0
21.10.2017 08:00:00 5,9 4,7 5,1 6,4 8,4 10,9 29 16 41 22 S 28 0 0,0
21.10.2017 07:00:00 5,7 4,7 5,6 6,4 8,4 10,9 20 11 28 15 SSW 26 0 0,0
21.10.2017 06:00:00 5,6 4,2 5,5 6,3 8,5 10,9 21 12 34 19 S 31 0 0,0
21.10.2017 05:00:00 5,8 4,1 5,3 6,2 8,6 10,9 21 11 31 17 SW 40 0 0,0
21.10.2017 04:00:00 5,9 3,8 5,4 6,0 8,8 10,9 23 12 30 16 SW 49 0 0,0
21.10.2017 03:00:00 5,5 3,7 4,7 5,9 9,0 10,9 20 11 35 19 SW 49 0 0,0
21.10.2017 02:00:00 5,7 3,9 4,9 6,0 9,2 10,9 25 13 37 20 WSW 48 0 0,0
21.10.2017 01:00:00 5,6 4,0 4,0 6,3 9,4 10,9 22 12 41 22 WSW 43 0 0,0
21.10.2017 00:00:00 6,1 4,0 4,7 6,8 9,7 10,9 25 14 45 25 WSW 54 0 0,0
20.10.2017 23:00:00 6,9 4,0 5,6 7,4 9,8 10,9 29 16 51 27 WSW 63 0 0,0
20.10.2017 22:00:00 7,5 4,5 7,1 7,8 10,0 10,9 24 13 48 26 WSW 68 0 0,0
20.10.2017 21:00:00 7,6 4,0 6,5 7,9 10,2 10,9 37 20 55 30 WSW 70 0 0,0
20.10.2017 20:00:00 7,7 3,6 7,0 8,0 10,5 10,9 32 18 50 27 SW 70 0 0,0
20.10.2017 19:00:00 7,9 4,3 6,9 8,9 10,7 10,9 35 19 49 26 SW 70 0 0,0
20.10.2017 18:00:00 8,5 4,9 7,9 9,8 10,8 10,9 32 17 49 26 SW 70 10 0,0
20.10.2017 17:00:00 9,4 5,5 8,9 10,9 10,7 10,9 26 14 53 28 SW 70 32 0,0
20.10.2017 16:00:00 9,6 5,6 9,7 11,7 10,6 10,9 29 16 50 27 WSW 70 48 0,0
20.10.2017 15:00:00 10,9 8,3 12,3 11,4 10,4 10,9 31 17 55 30 SW 70 25 0,0
20.10.2017 14:00:00 10,1 9,2 10,0 10,4 10,3 10,9 44 24 67 36 SW 16 0 0,3
20.10.2017 13:00:00 10,2 9,6 10,0 10,4 10,3 10,9 37 20 62 33 S 11 1 0,2
20.10.2017 12:00:00 9,9 9,3 10,0 10,1 10,2 10,9 37 20 58 31 S 7 0 0,5
20.10.2017 11:00:00 9,7 9,3 9,6 9,6 10,2 10,9 40 22 53 29 S 2,0 0 4,5
20.10.2017 10:00:00 10,0 8,1 9,0 9,4 10,3 10,9 35 19 50 27 SSW 4,1 0 0,3
20.10.2017 09:00:00 11,9 6,3 10,9 9,3 10,3 10,9 29 16 44 24 S 36 0 0,0
20.10.2017 08:00:00 12,3 5,5 11,0 9,2 10,4 10,9 27 15 43 23 SSW 41 0 0,0
20.10.2017 07:00:00 12,6 4,7 11,2 9,3 10,5 10,9 31 17 41 22 S 46 0 0,0
20.10.2017 06:00:00 12,9 4,7 11,4 9,4 10,6 10,9 29 16 44 24 S 51 0 0,0
20.10.2017 05:00:00 13,1 5,0 11,8 9,5 10,6 10,9 31 17 44 24 SSW 48 0 0,0
20.10.2017 04:00:00 12,5 6,1 11,3 9,6 10,7 10,9 29 16 51 28 SSW 39 0 0,0
20.10.2017 03:00:00 13,2 5,7 11,9 9,8 10,8 10,9 37 20 49 26 S 43 0 0,0
20.10.2017 02:00:00 13,3 6,0 12,0 9,8 10,9 10,9 35 19 50 27 S 42 0 0,0
20.10.2017 01:00:00 13,0 6,4 11,7 9,8 11,1 10,9 33 18 46 25 SSW 37 0 0,0
20.10.2017 00:00:00 12,9 7,6 11,3 10,1 11,2 10,9 29 16 38 20 S 33 0 0,0
19.10.2017 23:00:00 13,0 8,2 11,5 10,2 11,3 10,9 29 16 40 21 S 30 0 0,0
19.10.2017 22:00:00 12,1 8,7 10,6 10,4 11,5 10,9 24 13 39 21 SSW 20 0 0,0
19.10.2017 21:00:00 12,3 9,0 11,0 10,8 11,7 10,9 29 16 41 22 S 17 0 0,0
19.10.2017 20:00:00 12,3 9,2 11,1 11,2 11,8 10,9 31 17 39 21 S 17 0 0,0
19.10.2017 19:00:00 12,3 9,3 11,1 11,8 11,9 10,9 26 14 36 19 S 21 0 0,0
19.10.2017 18:00:00 13,0 9,6 11,8 12,9 11,8 10,9 23 12 31 17 S 23 2 0,0
19.10.2017 17:00:00 14,4 9,8 13,7 14,0 11,6 10,9 21 11 29 16 S 34 52 0,0
19.10.2017 16:00:00 15,2 9,3 15,0 14,7 11,3 10,9 17 9 31 17 S 30 60 0,0
19.10.2017 15:00:00 15,3 8,8 16,5 14,4 10,9 10,9 21 11 32 17 SSW 32 60 0,0
19.10.2017 14:00:00 15,0 8,2 16,1 14,3 10,4 10,9 23 12 33 18 SSW 33 60 0,0
19.10.2017 13:00:00 14,5 8,1 15,5 13,2 10,0 10,9 21 11 34 18 SSW 32 60 0,0
19.10.2017 12:00:00 13,9 8,4 14,8 12,0 9,7 10,8 21 11 32 17 SSW 29 60 0,0
19.10.2017 11:00:00 13,0 7,6 13,5 10,4 9,6 10,8 16 8 23 12 S 32 60 0,0
19.10.2017 10:00:00 12,2 7,1 11,4 8,4 9,6 10,8 15 8 22 12 S 23 60 0,0
19.10.2017 09:00:00 10,3 6,7 7,1 7,5 9,7 10,8 20 11 23 12 S 18 24 0,0
19.10.2017 08:00:00 10,7 6,4 8,6 7,7 9,9 10,8 18 10 25 13 SSW 22 0 0,0
19.10.2017 07:00:00 10,6 7,2 8,5 8,0 10,0 10,8 18 10 27 15 S 17 0 0,0
19.10.2017 06:00:00 10,7 7,5 8,6 8,1 10,1 10,8 19 10 29 15 SSW 22 0 0,0
19.10.2017 05:00:00 10,5 7,8 8,4 8,3 10,2 10,8 20 11 30 16 SSW 18 0 0,0
19.10.2017 04:00:00 10,9 8,0 9,0 8,5 10,4 10,8 25 14 32 18 SW 19 0 0,0
19.10.2017 03:00:00 10,8 8,2 9,0 8,6 10,5 10,8 27 15 34 18 SW 15 0 0,0
19.10.2017 02:00:00 10,8 8,0 9,0 8,5 10,7 10,8 26 14 36 19 SW 15 0 0,0
19.10.2017 01:00:00 10,9 8,3 8,3 8,5 10,9 10,8 19 10 24 13 SW 17 0 0,0
19.10.2017 00:00:00 11,0 8,4 8,5 8,9 11,1 10,8 17 9 22 12 SW 18 0 0,0
18.10.2017 23:00:00 11,2 8,5 9,1 9,3 11,3 10,8 19 10 25 13 SW 18 0 0,0
18.10.2017 22:00:00 11,5 8,4 9,3 9,5 11,6 10,8 20 11 26 14 SW 24 0 0,0
18.10.2017 21:00:00 11,6 8,1 9,4 9,9 11,8 10,8 19 11 26 14 WSW 29 0 0,0
18.10.2017 20:00:00 11,3 7,6 8,2 10,6 12,1 10,8 18 10 22 12 WSW 36 0 0,0
18.10.2017 19:00:00 12,2 7,6 9,7 11,8 12,2 10,8 19 11 24 13 SW 44 0 0,0
18.10.2017 18:00:00 14,4 7,6 12,7 13,4 12,1 10,8 18 10 23 13 SW 48 35 0,0
18.10.2017 17:00:00 15,7 8,5 14,2 14,7 11,8 10,8 13 7 18 10 SW 55 48 0,0
18.10.2017 16:00:00 16,5 8,6 16,6 14,8 11,5 10,8 13 7 19 10 SW 54 60 0,0
18.10.2017 15:00:00 16,0 8,2 17,4 14,0 11,2 10,8 13 7 24 13 SSW 45 60 0,0
18.10.2017 14:00:00 13,5 7,3 13,2 12,9 11,0 10,8 16 8 30 16 SW 40 44 0,0
18.10.2017 13:00:00 14,0 7,0 15,0 12,4 10,7 10,8 19 10 29 16 SSW 41 40 0,0
18.10.2017 12:00:00 13,8 5,9 13,0 12,4 10,5 10,8 22 12 31 17 S 43 60 0,0
18.10.2017 11:00:00 13,5 7,0 14,0 10,9 10,4 10,8 23 12 31 17 S 25 60 0,0
18.10.2017 10:00:00 12,8 7,7 11,7 9,6 10,4 10,8 17 9 25 13 S 22 60 0,0
18.10.2017 09:00:00 12,0 7,1 9,4 8,7 10,6 10,8 19 10 29 15 SSW 23 28 0,0
18.10.2017 08:00:00 12,0 7,2 9,1 9,0 10,7 10,8 23 13 32 17 SSW 26 0 0,0
18.10.2017 07:00:00 12,1 8,4 9,5 9,4 10,8 10,8 25 13 30 16 SSW 14 0 0,0
18.10.2017 06:00:00 12,0 9,3 9,7 9,6 10,9 10,7 20 11 26 14 SSW 9 0 0,0
18.10.2017 05:00:00 12,4 9,9 10,2 9,6 11,0 10,7 19 10 25 13 S 10 0 0,0
18.10.2017 04:00:00 13,0 10,1 10,2 9,6 11,2 10,7 21 11 27 15 S 12 0 0,0
18.10.2017 03:00:00 12,8 11,4 9,6 10,0 11,3 10,7 16 9 21 11 S 8 0 0,0
18.10.2017 02:00:00 12,8 11,7 10,9 10,2 11,4 10,7 13 7 21 11 S 4,8 0 0,0
18.10.2017 01:00:00 13,2 11,8 11,2 10,2 11,6 10,7 14 7 17 9 SSW 7 0 0,0
18.10.2017 00:00:00 12,9 11,9 11,0 10,3 11,7 10,7 13 7 16 9 SSW 4,3 0 0,0
17.10.2017 23:00:00 13,2 12,2 11,2 10,6 11,9 10,7 11 6 16 9 SSW 4,5 0 0,0
17.10.2017 22:00:00 13,4 12,4 11,3 10,9 12,1 10,7 10 5 14 7 SSW 6 0 0,0
17.10.2017 21:00:00 13,2 12,2 11,4 11,3 12,3 10,7 11 6 15 8 SSW 5 0 0,0
17.10.2017 20:00:00 13,5 12,6 11,8 11,6 12,5 10,7 11 6 13 7 SSW 5 0 0,0
17.10.2017 19:00:00 13,5 12,0 10,1 12,5 12,6 10,7 10 6 12 6 SW 10 0 0,0
17.10.2017 18:00:00 14,5 12,2 12,0 13,9 12,5 10,7 9 5 16 9 SW 13 0 0,0
17.10.2017 17:00:00 15,3 12,3 14,2 14,7 12,3 10,7 10 6 18 10 SW 14 0 0,0
17.10.2017 16:00:00 15,5 12,4 15,4 15,0 12,1 10,7 11 6 21 11 SSW 17 0 0,0
17.10.2017 15:00:00 16,1 11,0 16,5 15,1 11,7 10,7 12 6 21 11 WSW 20 39 0,0
17.10.2017 14:00:00 15,5 11,6 15,9 14,7 11,4 10,7 14 8 22 12 SW 17 16 0,0
17.10.2017 13:00:00 15,2 11,9 15,6 14,0 11,0 10,6 14 8 26 14 SW 16 13 0,0
17.10.2017 12:00:00 14,8 12,3 15,1 12,8 10,8 10,6 18 10 27 14 WSW 11 0 0,0
17.10.2017 11:00:00 13,7 11,7 13,9 11,3 10,7 10,6 21 11 27 15 W 7 0 0,0
17.10.2017 10:00:00 12,4 10,1 11,9 10,2 10,7 10,6 22 12 29 16 W 12 0 0,0
17.10.2017 09:00:00 12,1 9,1 10,8 9,6 10,8 10,6 23 13 34 18 W 21 0 0,0
17.10.2017 08:00:00 12,2 8,8 10,4 9,5 10,9 10,6 27 15 34 18 W 24 0 0,0
17.10.2017 07:00:00 12,8 8,6 10,8 9,6 11,1 10,6 26 14 34 19 WSW 30 0 0,0
17.10.2017 06:00:00 13,2 8,6 11,0 9,7 11,2 10,6 27 14 36 19 WSW 32 0 0,0
17.10.2017 05:00:00 13,0 8,2 11,0 9,8 11,4 10,6 29 16 41 22 WSW 34 0 0,0
17.10.2017 04:00:00 12,8 7,8 10,8 10,0 11,6 10,6 27 15 43 23 SW 33 0 0,0
17.10.2017 03:00:00 13,6 7,6 12,0 10,2 11,7 10,6 36 19 45 25 SW 34 0 0,0
17.10.2017 02:00:00 14,0 7,6 12,2 10,5 11,9 10,6 32 18 45 24 SW 33 0 0,0
17.10.2017 01:00:00 13,7 8,1 11,7 10,9 12,1 10,6 27 15 50 27 SSW 31 0 0,0
17.10.2017 00:00:00 15,0 7,7 13,2 11,3 12,3 10,6 33 18 48 26 S 35 0 0,0
16.10.2017 23:00:00 14,8 8,5 13,3 11,6 12,5 10,6 36 19 50 27 SSW 28 0 0,0
16.10.2017 22:00:00 15,6 8,2 14,0 12,0 12,7 10,6 36 19 46 25 SSW 35 0 0,0
16.10.2017 21:00:00 14,9 10,2 13,4 12,4 13,0 10,6 29 16 37 20 S 27 0 0,0
16.10.2017 20:00:00 14,5 10,6 12,9 13,1 13,1 10,6 23 12 37 20 S 25 0 0,0
16.10.2017 19:00:00 15,7 10,5 13,8 14,0 13,2 10,5 24 13 32 17 S 35 0 0,0
16.10.2017 18:00:00 17,4 12,3 15,3 15,7 13,1 10,5 13 7 25 14 S 28 50 0,0
16.10.2017 17:00:00 19,9 10,7 18,1 16,9 12,8 10,5 19 11 24 13 SSW 40 60 0,0
16.10.2017 16:00:00 20,8 10,6 20,8 17,3 12,3 10,5 16 9 28 15 SW 21 60 0,0
16.10.2017 15:00:00 20,7 8,8 21,1 17,0 11,8 10,5 22 12 32 17 SW 19 60 0,0

tt = Température de l'air
td = dewpoint
tt 5cm = Température de l'air 5cm
tt -5cm = Température de l'air -5cm
tt -20cm = Température de l'air -20cm
tt -100cm = Température de l'air -100cm
ff = Vitesse du vent
fx = gusts
dd = Direction du vent
vv = visibility
sd = Ensoleillement
rr = Quantités de précipitations

stations d'obs. à proximité